INFORMACIÓN METAR y TAF
METAR FOR LEST
ADDS - METARS form results

(0414 UTC 22 July 2019)
Data provider http://aviationweather.gov/metar/data/
 
METAR text: LEST 220400Z 05003KT 010V100 2000 BR BKN002 16/16 Q1020 NOSIG
Conditions at: LEST (SANTIAGO/LABACOL, ES) observed 0400 UTC 22 July 2019
Temperature: 16.0°C (61°F)
Dewpoint: 16.0°C (61°F) [RH = 100%]
Pressure (altimeter): 30.12 inches Hg (1020.0 mb)
Winds: from the NE (50 degrees) at 3 MPH (3 knots; 1.5 m/s)
Visibility: 1.24 miles (2.00 km)
Ceiling: 200 feet AGL
Clouds: broken clouds at 200 feet AGL
Weather: BR  (mist)

METAR text: LEST 220330Z 06003KT 020V100 3000 BR OVC001 16/16 Q1021 NOSIG
Conditions at: LEST (SANTIAGO/LABACOL, ES) observed 0330 UTC 22 July 2019
Temperature: 16.0°C (61°F)
Dewpoint: 16.0°C (61°F) [RH = 100%]
Pressure (altimeter): 30.15 inches Hg (1021.0 mb)
Winds: from the ENE (60 degrees) at 3 MPH (3 knots; 1.5 m/s)
Visibility: 1.86 miles (2.99 km)
Ceiling: 100 feet AGL
Clouds: overcast cloud deck at 100 feet AGL
Weather: BR  (mist)

Forecast for: LEST (SANTIAGO/LABACOL, ES)
Text: TAF LEST 212300Z 2200/2224 02005KT 9999 FEW015 TX31/2214Z TN15/2205Z
Forecast period: 0000 UTC 22 July 2019 to 0000 UTC 23 July 2019
Forecast type: FROM: standard forecast or significant change
Winds: from the NNE (20 degrees) at 6 MPH (5 knots; 2.6 m/s)
Visibility: 6 or more miles 10+ km)
Ceiling: at least 12,000 feet AGL
Clouds: few clouds at 1500 feet AGL
Weather: no significant weather forecast for this period
Text: PROB40
Forecast period: 0100 to 0700 UTC 22 July 2019
Forecast type: TEMPORARY: The following changes expected for less than half the time period
Visibility: 1.86 miles (2.99 km)
Ceiling: unknown
Clouds: missing
Weather: BR  (mist)
Text: TEMPO 2201/2207 3000 BR
Forecast period: 0300 to 0700 UTC 22 July 2019
Forecast type: TEMPORARY: The following changes expected for less than half the time period
Visibility: 0.37 miles (0.60 km)
Ceiling: 200 feet AGL
Clouds: broken clouds at 200 feet AGL
Weather: FG  (fog)

 MAPA DE AEROPUERTO

 INFORMACIÓN DE PISTA
Pista 17 Longitud 10499 ft Ancho 148 ft
Elevación 1170 ft Umbral desplazado 394 ft Rumbo de pista 166
Pista 35 Longitud 10499 ft Ancho 148 ft
Elevación 1196 ft Umbral desplazado 0 ft Rumbo de pista 346

 FRECUANCIAS DEL AEROPUERTO
Tipo APP Nombre APP Frecuencia 118.2 MHZ
Tipo GND Nombre GND Frecuencia 121.7 MHZ
Tipo TWR Nombre TWR Frecuencia 118.75 MHZ

 RADIO AYUDAS DEL AEROPUERTO
Tipo NDB Nombre Santiago Frecuencia 417 KHZ
Tipo VOR-DME Nombre Santiago Frecuencia 116400 KHZ




Powered by Virtual Airlines Manager